sensor_id;sensor_type;location;lat;lon;timestamp;temperature;humidity
72712;SHT30;60828;40.292;17.998;2022-11-13T00:00:03;12.08;90.29
72712;SHT30;60828;40.292;17.998;2022-11-13T00:02:28;12.11;90.32
72712;SHT30;60828;40.292;17.998;2022-11-13T00:04:53;12.10;90.22
72712;SHT30;60828;40.292;17.998;2022-11-13T00:07:19;12.15;90.21
72712;SHT30;60828;40.292;17.998;2022-11-13T00:09:44;12.20;90.14
72712;SHT30;60828;40.292;17.998;2022-11-13T00:12:09;12.22;90.05
72712;SHT30;60828;40.292;17.998;2022-11-13T00:14:35;12.24;90.16
72712;SHT30;60828;40.292;17.998;2022-11-13T00:17:00;12.22;90.27
72712;SHT30;60828;40.292;17.998;2022-11-13T00:19:25;12.24;90.25
72712;SHT30;60828;40.292;17.998;2022-11-13T00:21:51;12.22;90.29
72712;SHT30;60828;40.292;17.998;2022-11-13T00:24:16;12.25;90.24
72712;SHT30;60828;40.292;17.998;2022-11-13T00:26:41;12.25;90.33
72712;SHT30;60828;40.292;17.998;2022-11-13T00:29:07;12.20;90.51
72712;SHT30;60828;40.292;17.998;2022-11-13T00:31:32;12.20;90.42
72712;SHT30;60828;40.292;17.998;2022-11-13T00:33:58;12.24;90.42
72712;SHT30;60828;40.292;17.998;2022-11-13T00:36:26;12.15;90.53
72712;SHT30;60828;40.292;17.998;2022-11-13T00:38:51;12.20;90.53
72712;SHT30;60828;40.292;17.998;2022-11-13T00:41:17;12.18;90.24
72712;SHT30;60828;40.292;17.998;2022-11-13T00:43:42;12.25;90.17
72712;SHT30;60828;40.292;17.998;2022-11-13T00:46:08;12.28;90.01
72712;SHT30;60828;40.292;17.998;2022-11-13T00:48:33;12.31;89.94
72712;SHT30;60828;40.292;17.998;2022-11-13T00:50:59;12.28;89.93
72712;SHT30;60828;40.292;17.998;2022-11-13T00:53:25;12.26;90.17
72712;SHT30;60828;40.292;17.998;2022-11-13T00:55:50;12.28;90.28
72712;SHT30;60828;40.292;17.998;2022-11-13T00:58:16;12.29;90.31
72712;SHT30;60828;40.292;17.998;2022-11-13T01:00:42;12.31;90.15
72712;SHT30;60828;40.292;17.998;2022-11-13T01:03:08;12.32;90.15
72712;SHT30;60828;40.292;17.998;2022-11-13T01:05:34;12.35;90.08
72712;SHT30;60828;40.292;17.998;2022-11-13T01:08:00;12.31;90.18
72712;SHT30;60828;40.292;17.998;2022-11-13T01:10:25;12.35;90.26
72712;SHT30;60828;40.292;17.998;2022-11-13T01:12:50;12.38;90.11
72712;SHT30;60828;40.292;17.998;2022-11-13T01:15:16;12.38;90.14
72712;SHT30;60828;40.292;17.998;2022-11-13T01:17:41;12.38;90.05
72712;SHT30;60828;40.292;17.998;2022-11-13T01:20:07;12.41;90.07
72712;SHT30;60828;40.292;17.998;2022-11-13T01:22:32;12.42;90.27
72712;SHT30;60828;40.292;17.998;2022-11-13T01:24:57;12.45;90.06
72712;SHT30;60828;40.292;17.998;2022-11-13T01:27:23;12.48;90.06
72712;SHT30;60828;40.292;17.998;2022-11-13T01:29:48;12.52;89.98
72712;SHT30;60828;40.292;17.998;2022-11-13T01:32:13;12.56;89.99
72712;SHT30;60828;40.292;17.998;2022-11-13T01:34:39;12.57;90.07
72712;SHT30;60828;40.292;17.998;2022-11-13T01:37:04;12.57;90.07
72712;SHT30;60828;40.292;17.998;2022-11-13T01:39:30;12.53;90.19
72712;SHT30;60828;40.292;17.998;2022-11-13T01:41:55;12.62;89.90
72712;SHT30;60828;40.292;17.998;2022-11-13T01:44:20;12.70;89.77
72712;SHT30;60828;40.292;17.998;2022-11-13T01:46:47;12.84;89.36
72712;SHT30;60828;40.292;17.998;2022-11-13T01:51:40;12.99;89.20
72712;SHT30;60828;40.292;17.998;2022-11-13T01:54:07;12.99;89.38
72712;SHT30;60828;40.292;17.998;2022-11-13T01:56:34;13.04;89.40
72712;SHT30;60828;40.292;17.998;2022-11-13T01:59:05;13.07;89.11
72712;SHT30;60828;40.292;17.998;2022-11-13T02:01:32;13.11;89.10
72712;SHT30;60828;40.292;17.998;2022-11-13T02:03:58;13.12;88.87
72712;SHT30;60828;40.292;17.998;2022-11-13T02:06:24;13.08;89.10
72712;SHT30;60828;40.292;17.998;2022-11-13T02:08:52;13.08;89.07
72712;SHT30;60828;40.292;17.998;2022-11-13T02:11:18;13.06;88.94
72712;SHT30;60828;40.292;17.998;2022-11-13T02:13:44;12.97;88.99
72712;SHT30;60828;40.292;17.998;2022-11-13T02:16:09;12.96;88.98
72712;SHT30;60828;40.292;17.998;2022-11-13T02:18:36;12.93;89.17
72712;SHT30;60828;40.292;17.998;2022-11-13T02:23:45;12.87;89.47
72712;SHT30;60828;40.292;17.998;2022-11-13T02:26:13;12.83;89.49
72712;SHT30;60828;40.292;17.998;2022-11-13T02:28:39;12.80;89.69
72712;SHT30;60828;40.292;17.998;2022-11-13T02:31:08;12.76;89.82
72712;SHT30;60828;40.292;17.998;2022-11-13T02:33:34;12.73;89.90
72712;SHT30;60828;40.292;17.998;2022-11-13T02:35:59;12.75;89.99
72712;SHT30;60828;40.292;17.998;2022-11-13T02:38:25;12.72;90.14
72712;SHT30;60828;40.292;17.998;2022-11-13T02:40:50;12.73;90.27
72712;SHT30;60828;40.292;17.998;2022-11-13T02:43:15;12.75;90.38
72712;SHT30;60828;40.292;17.998;2022-11-13T02:45:41;12.76;90.50
72712;SHT30;60828;40.292;17.998;2022-11-13T02:48:06;12.83;90.49
72712;SHT30;60828;40.292;17.998;2022-11-13T02:50:32;12.83;90.57
72712;SHT30;60828;40.292;17.998;2022-11-13T02:52:58;12.86;90.57
72712;SHT30;60828;40.292;17.998;2022-11-13T02:55:23;12.86;90.56
72712;SHT30;60828;40.292;17.998;2022-11-13T02:57:48;12.89;90.69
72712;SHT30;60828;40.292;17.998;2022-11-13T03:00:14;12.90;90.77
72712;SHT30;60828;40.292;17.998;2022-11-13T03:02:40;12.87;90.90
72712;SHT30;60828;40.292;17.998;2022-11-13T03:05:05;12.89;90.82
72712;SHT30;60828;40.292;17.998;2022-11-13T03:07:30;12.89;90.80
72712;SHT30;60828;40.292;17.998;2022-11-13T03:09:56;12.86;90.84
72712;SHT30;60828;40.292;17.998;2022-11-13T03:12:21;12.89;90.87
72712;SHT30;60828;40.292;17.998;2022-11-13T03:14:46;12.89;90.87
72712;SHT30;60828;40.292;17.998;2022-11-13T03:17:12;12.89;90.99
72712;SHT30;60828;40.292;17.998;2022-11-13T03:19:37;12.90;91.07
72712;SHT30;60828;40.292;17.998;2022-11-13T03:22:02;12.93;91.05
72712;SHT30;60828;40.292;17.998;2022-11-13T03:24:28;12.94;91.16
72712;SHT30;60828;40.292;17.998;2022-11-13T03:26:53;12.96;91.24
72712;SHT30;60828;40.292;17.998;2022-11-13T03:29:18;12.97;91.23
72712;SHT30;60828;40.292;17.998;2022-11-13T03:31:44;12.99;91.25
72712;SHT30;60828;40.292;17.998;2022-11-13T03:34:09;12.96;91.10
72712;SHT30;60828;40.292;17.998;2022-11-13T03:36:34;12.94;91.16
72712;SHT30;60828;40.292;17.998;2022-11-13T03:38:59;12.97;91.14
72712;SHT30;60828;40.292;17.998;2022-11-13T03:41:25;12.99;91.10
72712;SHT30;60828;40.292;17.998;2022-11-13T03:43:50;13.03;91.21
72712;SHT30;60828;40.292;17.998;2022-11-13T03:46:15;13.04;91.17
72712;SHT30;60828;40.292;17.998;2022-11-13T03:48:41;13.01;91.23
72712;SHT30;60828;40.292;17.998;2022-11-13T03:51:06;13.04;91.27
72712;SHT30;60828;40.292;17.998;2022-11-13T03:53:31;13.03;91.23
72712;SHT30;60828;40.292;17.998;2022-11-13T03:55:57;13.03;91.23
72712;SHT30;60828;40.292;17.998;2022-11-13T03:58:22;13.01;91.28
72712;SHT30;60828;40.292;17.998;2022-11-13T04:00:47;13.01;91.32
72712;SHT30;60828;40.292;17.998;2022-11-13T04:03:13;13.01;91.36
72712;SHT30;60828;40.292;17.998;2022-11-13T04:05:38;13.01;91.32
72712;SHT30;60828;40.292;17.998;2022-11-13T04:08:05;13.03;91.26
72712;SHT30;60828;40.292;17.998;2022-11-13T04:10:31;12.99;91.29
72712;SHT30;60828;40.292;17.998;2022-11-13T04:12:56;13.00;91.25
72712;SHT30;60828;40.292;17.998;2022-11-13T04:15:22;12.96;91.35
72712;SHT30;60828;40.292;17.998;2022-11-13T04:17:47;12.90;91.41
72712;SHT30;60828;40.292;17.998;2022-11-13T04:20:13;12.89;91.47
72712;SHT30;60828;40.292;17.998;2022-11-13T04:22:38;12.90;91.51
72712;SHT30;60828;40.292;17.998;2022-11-13T04:25:04;12.87;91.55
72712;SHT30;60828;40.292;17.998;2022-11-13T04:27:29;12.87;91.49
72712;SHT30;60828;40.292;17.998;2022-11-13T04:29:54;12.84;91.49
72712;SHT30;60828;40.292;17.998;2022-11-13T04:32:20;12.83;91.44
72712;SHT30;60828;40.292;17.998;2022-11-13T04:34:45;12.82;91.44
72712;SHT30;60828;40.292;17.998;2022-11-13T04:37:10;12.76;91.32
72712;SHT30;60828;40.292;17.998;2022-11-13T04:39:36;12.79;91.29
72712;SHT30;60828;40.292;17.998;2022-11-13T04:42:01;12.76;91.23
72712;SHT30;60828;40.292;17.998;2022-11-13T04:44:45;12.70;91.16
72712;SHT30;60828;40.292;17.998;2022-11-13T04:47:10;12.69;91.12
72712;SHT30;60828;40.292;17.998;2022-11-13T04:49:36;12.65;90.92
72712;SHT30;60828;40.292;17.998;2022-11-13T04:52:01;12.65;91.01
72712;SHT30;60828;40.292;17.998;2022-11-13T04:54:26;12.66;90.71
72712;SHT30;60828;40.292;17.998;2022-11-13T04:56:52;12.62;90.56
72712;SHT30;60828;40.292;17.998;2022-11-13T04:59:17;12.62;90.37
72712;SHT30;60828;40.292;17.998;2022-11-13T05:01:42;12.65;90.19
72712;SHT30;60828;40.292;17.998;2022-11-13T05:04:11;12.67;89.56
72712;SHT30;60828;40.292;17.998;2022-11-13T05:06:36;12.67;89.51
72712;SHT30;60828;40.292;17.998;2022-11-13T05:09:02;12.70;89.32
72712;SHT30;60828;40.292;17.998;2022-11-13T05:11:27;12.70;89.02
72712;SHT30;60828;40.292;17.998;2022-11-13T05:13:52;12.65;89.11
72712;SHT30;60828;40.292;17.998;2022-11-13T05:16:18;12.66;89.22
72712;SHT30;60828;40.292;17.998;2022-11-13T05:18:43;12.67;89.68
72712;SHT30;60828;40.292;17.998;2022-11-13T05:21:08;12.62;89.39
72712;SHT30;60828;40.292;17.998;2022-11-13T05:23:34;12.62;89.41
72712;SHT30;60828;40.292;17.998;2022-11-13T05:26:01;12.60;89.43
72712;SHT30;60828;40.292;17.998;2022-11-13T05:28:26;12.55;89.41
72712;SHT30;60828;40.292;17.998;2022-11-13T05:30:52;12.55;89.36
72712;SHT30;60828;40.292;17.998;2022-11-13T05:33:17;12.55;89.45
72712;SHT30;60828;40.292;17.998;2022-11-13T05:35:42;12.48;89.66
72712;SHT30;60828;40.292;17.998;2022-11-13T05:38:07;12.49;89.65
72712;SHT30;60828;40.292;17.998;2022-11-13T05:40:33;12.45;89.84
72712;SHT30;60828;40.292;17.998;2022-11-13T05:42:58;12.48;89.84
72712;SHT30;60828;40.292;17.998;2022-11-13T05:45:23;12.50;89.60
72712;SHT30;60828;40.292;17.998;2022-11-13T05:47:49;12.57;89.50
72712;SHT30;60828;40.292;17.998;2022-11-13T05:50:14;12.59;89.47
72712;SHT30;60828;40.292;17.998;2022-11-13T05:52:40;12.56;89.55
72712;SHT30;60828;40.292;17.998;2022-11-13T05:55:05;12.62;89.61
72712;SHT30;60828;40.292;17.998;2022-11-13T05:57:31;12.62;89.47
72712;SHT30;60828;40.292;17.998;2022-11-13T05:59:56;12.66;89.57
72712;SHT30;60828;40.292;17.998;2022-11-13T06:02:21;12.65;89.66
72712;SHT30;60828;40.292;17.998;2022-11-13T06:04:47;12.67;89.80
72712;SHT30;60828;40.292;17.998;2022-11-13T06:07:13;12.69;89.79
72712;SHT30;60828;40.292;17.998;2022-11-13T06:09:38;12.75;89.76
72712;SHT30;60828;40.292;17.998;2022-11-13T06:12:04;12.77;89.83
72712;SHT30;60828;40.292;17.998;2022-11-13T06:14:29;12.79;89.83
72712;SHT30;60828;40.292;17.998;2022-11-13T06:16:54;12.83;89.85
72712;SHT30;60828;40.292;17.998;2022-11-13T06:19:20;12.89;89.79
72712;SHT30;60828;40.292;17.998;2022-11-13T06:21:45;12.93;89.76
72712;SHT30;60828;40.292;17.998;2022-11-13T06:24:11;12.99;89.85
72712;SHT30;60828;40.292;17.998;2022-11-13T06:26:36;13.03;89.95
72712;SHT30;60828;40.292;17.998;2022-11-13T06:29:03;13.11;89.83
72712;SHT30;60828;40.292;17.998;2022-11-13T06:31:30;13.22;89.66
72712;SHT30;60828;40.292;17.998;2022-11-13T06:33:56;13.24;89.59
72712;SHT30;60828;40.292;17.998;2022-11-13T06:36:24;13.22;89.65
72712;SHT30;60828;40.292;17.998;2022-11-13T06:38:50;13.20;89.66
72712;SHT30;60828;40.292;17.998;2022-11-13T06:41:16;13.20;89.84
72712;SHT30;60828;40.292;17.998;2022-11-13T06:43:42;13.14;89.97
72712;SHT30;60828;40.292;17.998;2022-11-13T06:46:15;13.14;90.11
72712;SHT30;60828;40.292;17.998;2022-11-13T06:48:40;13.17;90.11
72712;SHT30;60828;40.292;17.998;2022-11-13T06:51:06;13.18;90.23
72712;SHT30;60828;40.292;17.998;2022-11-13T06:53:33;13.22;90.16
72712;SHT30;60828;40.292;17.998;2022-11-13T06:55:59;13.22;90.18
72712;SHT30;60828;40.292;17.998;2022-11-13T06:58:25;13.21;90.28
72712;SHT30;60828;40.292;17.998;2022-11-13T07:00:50;13.24;90.24
72712;SHT30;60828;40.292;17.998;2022-11-13T07:03:16;13.27;90.28
72712;SHT30;60828;40.292;17.998;2022-11-13T07:05:41;13.31;90.10
72712;SHT30;60828;40.292;17.998;2022-11-13T07:08:07;13.41;89.93
72712;SHT30;60828;40.292;17.998;2022-11-13T07:10:32;13.49;89.66
72712;SHT30;60828;40.292;17.998;2022-11-13T07:12:58;13.55;89.40
72712;SHT30;60828;40.292;17.998;2022-11-13T07:15:24;13.65;89.24
72712;SHT30;60828;40.292;17.998;2022-11-13T07:17:49;13.79;88.86
72712;SHT30;60828;40.292;17.998;2022-11-13T07:20:15;13.86;88.68
72712;SHT30;60828;40.292;17.998;2022-11-13T07:22:40;13.89;88.60
72712;SHT30;60828;40.292;17.998;2022-11-13T07:25:05;14.02;88.33
72712;SHT30;60828;40.292;17.998;2022-11-13T07:27:31;14.02;88.33
72712;SHT30;60828;40.292;17.998;2022-11-13T07:29:56;14.03;88.43
72712;SHT30;60828;40.292;17.998;2022-11-13T07:32:21;14.09;88.31
72712;SHT30;60828;40.292;17.998;2022-11-13T07:34:47;14.10;88.44
72712;SHT30;60828;40.292;17.998;2022-11-13T07:37:12;14.18;88.32
72712;SHT30;60828;40.292;17.998;2022-11-13T07:39:37;14.30;88.17
72712;SHT30;60828;40.292;17.998;2022-11-13T07:42:03;14.40;87.90
72712;SHT30;60828;40.292;17.998;2022-11-13T07:44:28;14.51;87.75
72712;SHT30;60828;40.292;17.998;2022-11-13T07:46:53;14.58;87.62
72712;SHT30;60828;40.292;17.998;2022-11-13T07:49:19;14.68;87.48
72712;SHT30;60828;40.292;17.998;2022-11-13T07:51:44;14.81;87.31
72712;SHT30;60828;40.292;17.998;2022-11-13T07:54:09;15.07;86.71
72712;SHT30;60828;40.292;17.998;2022-11-13T07:56:34;15.38;86.05
72712;SHT30;60828;40.292;17.998;2022-11-13T07:59:00;15.48;85.78
72712;SHT30;60828;40.292;17.998;2022-11-13T08:01:25;15.53;85.57
72712;SHT30;60828;40.292;17.998;2022-11-13T08:03:51;15.59;85.55
72712;SHT30;60828;40.292;17.998;2022-11-13T08:06:16;15.79;85.43
72712;SHT30;60828;40.292;17.998;2022-11-13T08:08:41;15.98;84.95
72712;SHT30;60828;40.292;17.998;2022-11-13T08:11:07;16.09;84.77
72712;SHT30;60828;40.292;17.998;2022-11-13T08:13:33;16.01;84.91
72712;SHT30;60828;40.292;17.998;2022-11-13T08:16:02;16.05;85.01
72712;SHT30;60828;40.292;17.998;2022-11-13T08:18:28;15.98;84.88
72712;SHT30;60828;40.292;17.998;2022-11-13T08:20:53;16.19;84.81
72712;SHT30;60828;40.292;17.998;2022-11-13T08:23:19;16.39;84.45
72712;SHT30;60828;40.292;17.998;2022-11-13T08:25:44;16.57;83.66
72712;SHT30;60828;40.292;17.998;2022-11-13T08:28:09;17.16;83.00
72712;SHT30;60828;40.292;17.998;2022-11-13T08:30:36;17.40;82.22
72712;SHT30;60828;40.292;17.998;2022-11-13T08:33:01;17.27;82.02
72712;SHT30;60828;40.292;17.998;2022-11-13T08:35:27;17.22;81.80
72712;SHT30;60828;40.292;17.998;2022-11-13T08:37:52;17.88;80.89
72712;SHT30;60828;40.292;17.998;2022-11-13T08:40:18;18.15;79.75
72712;SHT30;60828;40.292;17.998;2022-11-13T08:42:43;17.90;80.13
72712;SHT30;60828;40.292;17.998;2022-11-13T08:45:08;18.43;78.45
72712;SHT30;60828;40.292;17.998;2022-11-13T08:47:34;19.05;77.59
72712;SHT30;60828;40.292;17.998;2022-11-13T08:50:00;19.90;74.82
72712;SHT30;60828;40.292;17.998;2022-11-13T08:52:25;19.33;76.12
72712;SHT30;60828;40.292;17.998;2022-11-13T08:54:50;18.74;76.98
72712;SHT30;60828;40.292;17.998;2022-11-13T08:57:16;18.87;76.77
72712;SHT30;60828;40.292;17.998;2022-11-13T08:59:41;19.66;75.18
72712;SHT30;60828;40.292;17.998;2022-11-13T09:02:08;20.00;74.06
72712;SHT30;60828;40.292;17.998;2022-11-13T09:04:33;19.96;73.04
72712;SHT30;60828;40.292;17.998;2022-11-13T09:06:58;19.83;72.85
72712;SHT30;60828;40.292;17.998;2022-11-13T09:09:24;19.38;75.33
72712;SHT30;60828;40.292;17.998;2022-11-13T09:11:49;18.35;76.40
72712;SHT30;60828;40.292;17.998;2022-11-13T09:14:14;17.71;77.95
72712;SHT30;60828;40.292;17.998;2022-11-13T09:16:40;17.55;78.55
72712;SHT30;60828;40.292;17.998;2022-11-13T09:19:09;17.59;78.72
72712;SHT30;60828;40.292;17.998;2022-11-13T09:21:34;17.43;78.75
72712;SHT30;60828;40.292;17.998;2022-11-13T09:23:59;17.32;80.00
72712;SHT30;60828;40.292;17.998;2022-11-13T09:26:25;17.27;80.47
72712;SHT30;60828;40.292;17.998;2022-11-13T09:28:50;17.29;80.14
72712;SHT30;60828;40.292;17.998;2022-11-13T09:31:15;17.39;80.57
72712;SHT30;60828;40.292;17.998;2022-11-13T09:33:41;17.32;80.22
72712;SHT30;60828;40.292;17.998;2022-11-13T09:36:10;17.33;79.87
72712;SHT30;60828;40.292;17.998;2022-11-13T09:38:36;17.29;79.33
72712;SHT30;60828;40.292;17.998;2022-11-13T09:41:07;17.23;80.19
72712;SHT30;60828;40.292;17.998;2022-11-13T09:43:38;17.55;79.53
72712;SHT30;60828;40.292;17.998;2022-11-13T09:46:06;17.81;78.93
72712;SHT30;60828;40.292;17.998;2022-11-13T09:48:35;17.71;78.54
72712;SHT30;60828;40.292;17.998;2022-11-13T09:51:15;17.51;78.24
72712;SHT30;60828;40.292;17.998;2022-11-13T09:53:40;17.33;79.07
72712;SHT30;60828;40.292;17.998;2022-11-13T09:56:18;17.30;79.89
72712;SHT30;60828;40.292;17.998;2022-11-13T10:04:15;16.94;79.72
72712;SHT30;60828;40.292;17.998;2022-11-13T10:09:24;16.88;80.68
72712;SHT30;60828;40.292;17.998;2022-11-13T10:12:11;16.92;80.33
72712;SHT30;60828;40.292;17.998;2022-11-13T10:14:39;16.67;80.95
72712;SHT30;60828;40.292;17.998;2022-11-13T10:17:27;16.67;80.62
72712;SHT30;60828;40.292;17.998;2022-11-13T10:19:56;16.65;80.77
72712;SHT30;60828;40.292;17.998;2022-11-13T10:24:48;16.56;81.22
72712;SHT30;60828;40.292;17.998;2022-11-13T10:27:14;16.61;81.36
72712;SHT30;60828;40.292;17.998;2022-11-13T10:29:40;16.63;81.41
72712;SHT30;60828;40.292;17.998;2022-11-13T10:32:22;16.70;80.90
72712;SHT30;60828;40.292;17.998;2022-11-13T10:34:53;16.67;80.93
72712;SHT30;60828;40.292;17.998;2022-11-13T10:40:02;16.98;80.27
72712;SHT30;60828;40.292;17.998;2022-11-13T10:42:37;17.12;80.82
72712;SHT30;60828;40.292;17.998;2022-11-13T10:45:04;17.23;79.53
72712;SHT30;60828;40.292;17.998;2022-11-13T10:47:32;17.35;79.68
72712;SHT30;60828;40.292;17.998;2022-11-13T10:50:10;17.29;79.06
72712;SHT30;60828;40.292;17.998;2022-11-13T10:52:42;17.47;79.77
72712;SHT30;60828;40.292;17.998;2022-11-13T10:55:16;17.53;78.69
72712;SHT30;60828;40.292;17.998;2022-11-13T10:57:52;17.94;78.19
72712;SHT30;60828;40.292;17.998;2022-11-13T11:00:19;18.11;76.84
72712;SHT30;60828;40.292;17.998;2022-11-13T11:02:48;18.24;76.96
72712;SHT30;60828;40.292;17.998;2022-11-13T11:05:18;18.09;76.26
72712;SHT30;60828;40.292;17.998;2022-11-13T11:07:44;18.24;76.98
72712;SHT30;60828;40.292;17.998;2022-11-13T11:10:21;18.01;76.83
72712;SHT30;60828;40.292;17.998;2022-11-13T11:12:50;18.12;77.55
72712;SHT30;60828;40.292;17.998;2022-11-13T11:15:30;18.24;75.54
72712;SHT30;60828;40.292;17.998;2022-11-13T11:17:58;18.33;76.12
72712;SHT30;60828;40.292;17.998;2022-11-13T11:20:42;18.56;75.14
72712;SHT30;60828;40.292;17.998;2022-11-13T11:23:20;18.21;75.78
72712;SHT30;60828;40.292;17.998;2022-11-13T11:25:56;18.46;75.10
72712;SHT30;60828;40.292;17.998;2022-11-13T11:30:52;18.32;75.45
72712;SHT30;60828;40.292;17.998;2022-11-13T11:33:24;17.84;73.89
72712;SHT30;60828;40.292;17.998;2022-11-13T11:35:53;17.75;74.51
72712;SHT30;60828;40.292;17.998;2022-11-13T11:38:24;17.69;74.98
72712;SHT30;60828;40.292;17.998;2022-11-13T11:40:52;17.62;76.28
72712;SHT30;60828;40.292;17.998;2022-11-13T11:46:08;17.57;76.24
72712;SHT30;60828;40.292;17.998;2022-11-13T11:48:34;17.40;76.23
72712;SHT30;60828;40.292;17.998;2022-11-13T12:01:02;17.25;77.24
72712;SHT30;60828;40.292;17.998;2022-11-13T12:08:50;17.51;76.90
72712;SHT30;60828;40.292;17.998;2022-11-13T12:18:57;17.42;78.02
72712;SHT30;60828;40.292;17.998;2022-11-13T12:21:28;17.54;77.74
72712;SHT30;60828;40.292;17.998;2022-11-13T12:29:00;17.37;78.34
72712;SHT30;60828;40.292;17.998;2022-11-13T12:36:31;17.27;78.46
72712;SHT30;60828;40.292;17.998;2022-11-13T12:46:16;17.36;78.41
72712;SHT30;60828;40.292;17.998;2022-11-13T12:48:45;17.33;78.76
72712;SHT30;60828;40.292;17.998;2022-11-13T12:51:12;17.35;79.09
72712;SHT30;60828;40.292;17.998;2022-11-13T12:53:45;17.50;79.02
72712;SHT30;60828;40.292;17.998;2022-11-13T12:56:33;17.47;77.53
72712;SHT30;60828;40.292;17.998;2022-11-13T12:59:31;17.57;78.23
72712;SHT30;60828;40.292;17.998;2022-11-13T13:01:51;17.47;77.55
72712;SHT30;60828;40.292;17.998;2022-11-13T13:12:36;17.63;77.96
72712;SHT30;60828;40.292;17.998;2022-11-13T13:15:20;17.78;78.06
72712;SHT30;60828;40.292;17.998;2022-11-13T13:17:48;17.74;77.87
72712;SHT30;60828;40.292;17.998;2022-11-13T13:20:30;17.81;78.19
72712;SHT30;60828;40.292;17.998;2022-11-13T13:22:56;17.74;77.97
72712;SHT30;60828;40.292;17.998;2022-11-13T13:30:22;17.55;78.30
72712;SHT30;60828;40.292;17.998;2022-11-13T13:35:29;17.57;78.36
72712;SHT30;60828;40.292;17.998;2022-11-13T13:37:59;17.43;78.49
72712;SHT30;60828;40.292;17.998;2022-11-13T13:40:36;17.44;78.77
72712;SHT30;60828;40.292;17.998;2022-11-13T13:48:12;17.40;78.79
72712;SHT30;60828;40.292;17.998;2022-11-13T13:50:41;17.36;78.85
72712;SHT30;60828;40.292;17.998;2022-11-13T13:53:08;17.36;79.26
72712;SHT30;60828;40.292;17.998;2022-11-13T13:55:36;17.29;79.26
72712;SHT30;60828;40.292;17.998;2022-11-13T13:58:11;17.33;79.29
72712;SHT30;60828;40.292;17.998;2022-11-13T14:00:37;17.32;78.88
72712;SHT30;60828;40.292;17.998;2022-11-13T14:03:02;17.32;78.68
72712;SHT30;60828;40.292;17.998;2022-11-13T14:05:32;17.33;78.74
72712;SHT30;60828;40.292;17.998;2022-11-13T14:07:58;17.33;79.15
72712;SHT30;60828;40.292;17.998;2022-11-13T14:10:26;17.30;79.16
72712;SHT30;60828;40.292;17.998;2022-11-13T14:12:52;17.30;78.75
72712;SHT30;60828;40.292;17.998;2022-11-13T14:17:43;17.19;79.38
72712;SHT30;60828;40.292;17.998;2022-11-13T14:20:10;17.11;79.76
72712;SHT30;60828;40.292;17.998;2022-11-13T14:22:35;17.11;79.87
72712;SHT30;60828;40.292;17.998;2022-11-13T14:25:00;17.05;80.16
72712;SHT30;60828;40.292;17.998;2022-11-13T14:27:26;17.04;80.20
72712;SHT30;60828;40.292;17.998;2022-11-13T14:29:59;17.01;80.34
72712;SHT30;60828;40.292;17.998;2022-11-13T14:32:29;17.01;80.33
72712;SHT30;60828;40.292;17.998;2022-11-13T14:34:56;16.96;80.47
72712;SHT30;60828;40.292;17.998;2022-11-13T14:37:26;16.95;80.56
72712;SHT30;60828;40.292;17.998;2022-11-13T14:39:53;16.92;80.48
72712;SHT30;60828;40.292;17.998;2022-11-13T14:42:20;16.88;80.48
72712;SHT30;60828;40.292;17.998;2022-11-13T14:44:46;16.87;80.65
72712;SHT30;60828;40.292;17.998;2022-11-13T14:47:53;16.85;80.92
72712;SHT30;60828;40.292;17.998;2022-11-13T14:50:17;16.81;80.87
72712;SHT30;60828;40.292;17.998;2022-11-13T14:52:53;16.75;80.92
72712;SHT30;60828;40.292;17.998;2022-11-13T14:55:20;16.72;81.23
72712;SHT30;60828;40.292;17.998;2022-11-13T14:57:46;16.70;81.03
72712;SHT30;60828;40.292;17.998;2022-11-13T15:00:16;16.70;80.87
72712;SHT30;60828;40.292;17.998;2022-11-13T15:02:41;16.63;80.81
72712;SHT30;60828;40.292;17.998;2022-11-13T15:05:06;16.63;80.69
72712;SHT30;60828;40.292;17.998;2022-11-13T15:07:32;16.65;80.48
72712;SHT30;60828;40.292;17.998;2022-11-13T15:09:58;16.68;80.46
72712;SHT30;60828;40.292;17.998;2022-11-13T15:12:24;16.68;80.26
72712;SHT30;60828;40.292;17.998;2022-11-13T15:14:49;16.70;80.37
72712;SHT30;60828;40.292;17.998;2022-11-13T15:17:16;16.65;80.25
72712;SHT30;60828;40.292;17.998;2022-11-13T15:19:42;16.64;80.05
72712;SHT30;60828;40.292;17.998;2022-11-13T15:22:08;16.60;80.07
72712;SHT30;60828;40.292;17.998;2022-11-13T15:24:34;16.58;79.78
72712;SHT30;60828;40.292;17.998;2022-11-13T15:27:00;16.56;79.95
72712;SHT30;60828;40.292;17.998;2022-11-13T15:29:25;16.53;80.09
72712;SHT30;60828;40.292;17.998;2022-11-13T15:31:51;16.51;80.05
72712;SHT30;60828;40.292;17.998;2022-11-13T15:34:16;16.50;80.30
72712;SHT30;60828;40.292;17.998;2022-11-13T15:36:41;16.47;80.40
72712;SHT30;60828;40.292;17.998;2022-11-13T15:39:07;16.40;80.59
72712;SHT30;60828;40.292;17.998;2022-11-13T15:41:33;16.41;80.61
72712;SHT30;60828;40.292;17.998;2022-11-13T15:43:59;16.39;80.72
72712;SHT30;60828;40.292;17.998;2022-11-13T15:46:25;16.33;81.23
72712;SHT30;60828;40.292;17.998;2022-11-13T15:48:50;16.27;81.23
72712;SHT30;60828;40.292;17.998;2022-11-13T15:54:00;16.09;81.84
72712;SHT30;60828;40.292;17.998;2022-11-13T15:56:26;16.03;82.21
72712;SHT30;60828;40.292;17.998;2022-11-13T15:58:52;16.09;82.00
72712;SHT30;60828;40.292;17.998;2022-11-13T16:01:17;16.05;82.20
72712;SHT30;60828;40.292;17.998;2022-11-13T16:03:43;16.01;82.44
72712;SHT30;60828;40.292;17.998;2022-11-13T16:06:14;15.99;82.56
72712;SHT30;60828;40.292;17.998;2022-11-13T16:08:40;15.95;82.69
72712;SHT30;60828;40.292;17.998;2022-11-13T16:11:08;15.93;82.82
72712;SHT30;60828;40.292;17.998;2022-11-13T16:13:34;15.95;82.86
72712;SHT30;60828;40.292;17.998;2022-11-13T16:15:59;15.91;83.13
72712;SHT30;60828;40.292;17.998;2022-11-13T16:18:25;15.85;83.53
72712;SHT30;60828;40.292;17.998;2022-11-13T16:20:51;15.81;83.75
72712;SHT30;60828;40.292;17.998;2022-11-13T16:23:16;15.82;83.66
72712;SHT30;60828;40.292;17.998;2022-11-13T16:25:45;15.81;83.81
72712;SHT30;60828;40.292;17.998;2022-11-13T16:28:14;15.78;84.03
72712;SHT30;60828;40.292;17.998;2022-11-13T16:30:40;15.72;84.13
72712;SHT30;60828;40.292;17.998;2022-11-13T16:33:09;15.68;84.23
72712;SHT30;60828;40.292;17.998;2022-11-13T16:35:34;15.71;84.46
72712;SHT30;60828;40.292;17.998;2022-11-13T16:38:00;15.65;84.46
72712;SHT30;60828;40.292;17.998;2022-11-13T16:40:26;15.62;84.60
72712;SHT30;60828;40.292;17.998;2022-11-13T16:42:51;15.62;84.52